createdAt,value
2022-12-03T00:01:05.698Z,94.43
2022-12-03T00:03:35.994Z,94.35
2022-12-03T00:06:04.096Z,94.18
2022-12-03T00:08:34.879Z,93.82
2022-12-03T00:11:03.153Z,94.38
2022-12-03T00:13:32.600Z,94.00
2022-12-03T00:16:00.646Z,94.04
2022-12-03T00:18:28.672Z,94.13
2022-12-03T00:20:56.891Z,93.60
2022-12-03T00:23:25.300Z,93.96
2022-12-03T00:25:53.258Z,93.92
2022-12-03T00:28:21.229Z,93.43
2022-12-03T00:30:54.271Z,93.09
2022-12-03T00:33:23.014Z,92.94
2022-12-03T00:35:51.041Z,93.38
2022-12-03T00:38:18.981Z,93.63
2022-12-03T00:40:47.246Z,93.63
2022-12-03T00:43:15.362Z,93.46
2022-12-03T00:45:43.343Z,93.30
2022-12-03T00:48:12.651Z,93.81
2022-12-03T00:50:40.572Z,93.38
2022-12-03T00:53:08.522Z,93.83
2022-12-03T00:55:36.388Z,93.43
2022-12-03T00:58:04.445Z,93.42
2022-12-03T01:00:32.398Z,94.04
2022-12-03T01:03:00.683Z,93.90
2022-12-03T01:06:01.477Z,94.18
2022-12-03T01:08:31.168Z,94.06
2022-12-03T01:10:59.250Z,94.05
2022-12-03T01:13:27.213Z,94.17
2022-12-03T01:15:55.286Z,94.09
2022-12-03T01:18:23.522Z,94.71
2022-12-03T01:20:51.443Z,94.46
2022-12-03T01:23:19.382Z,94.61
2022-12-03T01:25:48.866Z,94.71
2022-12-03T01:28:16.991Z,94.67
2022-12-03T01:30:58.951Z,94.18
2022-12-03T01:33:27.063Z,94.71
2022-12-03T01:35:55.302Z,94.33
2022-12-03T01:38:23.218Z,94.38
2022-12-03T01:40:54.850Z,94.12
2022-12-03T01:43:22.746Z,93.71
2022-12-03T01:45:51.106Z,93.87
2022-12-03T01:48:19.102Z,94.23
2022-12-03T01:50:47.479Z,94.43
2022-12-03T01:53:18.437Z,94.56
2022-12-03T01:55:48.943Z,94.45
2022-12-03T01:58:25.883Z,94.21
2022-12-03T02:00:53.953Z,94.39
2022-12-03T02:03:27.052Z,94.60
2022-12-03T02:05:56.990Z,94.47
2022-12-03T02:08:29.650Z,94.29
2022-12-03T02:10:59.363Z,95.08
2022-12-03T02:13:29.680Z,94.40
2022-12-03T02:15:58.067Z,94.90
2022-12-03T02:18:26.918Z,95.08
2022-12-03T02:21:02.999Z,95.28
2022-12-03T02:23:39.574Z,95.45
2022-12-03T02:26:10.348Z,95.56
2022-12-03T02:28:38.852Z,95.36
2022-12-03T02:31:07.789Z,94.87
2022-12-03T02:33:36.820Z,95.71
2022-12-03T02:36:05.342Z,95.26
2022-12-03T02:38:35.871Z,95.27
2022-12-03T02:41:08.436Z,95.15
2022-12-03T02:43:36.982Z,95.21
2022-12-03T02:46:06.784Z,95.48
2022-12-03T02:48:37.904Z,94.77
2022-12-03T02:51:10.115Z,95.03
2022-12-03T02:53:42.646Z,95.24
2022-12-03T02:56:13.567Z,94.73
2022-12-03T02:58:44.933Z,94.31
2022-12-03T03:01:14.532Z,94.28
2022-12-03T03:03:43.162Z,94.05
2022-12-03T03:06:11.438Z,93.41
2022-12-03T03:08:41.630Z,94.07
2022-12-03T03:11:10.217Z,93.87
2022-12-03T03:13:39.232Z,93.75
2022-12-03T03:16:09.884Z,94.09
2022-12-03T03:18:38.561Z,93.53
2022-12-03T03:21:06.868Z,93.71
2022-12-03T03:23:35.338Z,93.76
2022-12-03T03:26:06.071Z,93.72
2022-12-03T03:28:37.230Z,94.11
2022-12-03T03:31:07.710Z,93.95
2022-12-03T03:33:38.683Z,94.22
2022-12-03T03:36:08.041Z,93.79
2022-12-03T03:38:36.664Z,94.04
2022-12-03T03:41:07.232Z,93.78
2022-12-03T03:43:38.309Z,93.80
2022-12-03T03:46:08.088Z,93.67
2022-12-03T03:48:38.027Z,94.06
2022-12-03T03:51:09.575Z,93.96
2022-12-03T03:53:38.896Z,94.12
2022-12-03T03:56:07.685Z,93.73
2022-12-03T03:58:36.173Z,92.77
2022-12-03T04:01:04.693Z,93.47
2022-12-03T04:03:33.063Z,93.91
2022-12-03T04:06:02.631Z,93.41
2022-12-03T04:08:30.796Z,93.23
2022-12-03T04:11:15.957Z,93.34
2022-12-03T04:13:44.186Z,93.69
2022-12-03T04:16:12.261Z,93.83
2022-12-03T04:18:46.210Z,94.12
2022-12-03T04:21:50.140Z,93.99
2022-12-03T04:24:18.226Z,93.98
2022-12-03T04:27:04.027Z,93.70
2022-12-03T04:29:32.375Z,93.60
2022-12-03T04:32:17.801Z,93.19
2022-12-03T04:35:03.269Z,93.97
2022-12-03T04:37:32.858Z,94.35
2022-12-03T04:40:00.789Z,94.34
2022-12-03T04:42:28.740Z,93.73
2022-12-03T04:44:58.494Z,94.10
2022-12-03T04:47:26.652Z,94.12
2022-12-03T04:49:54.536Z,94.08
2022-12-03T04:52:22.553Z,94.04
2022-12-03T04:54:52.184Z,94.27
2022-12-03T04:57:20.392Z,93.53
2022-12-03T04:59:48.351Z,94.05
2022-12-03T05:02:16.437Z,94.06
2022-12-03T05:04:44.643Z,94.09
2022-12-03T05:07:12.793Z,94.12
2022-12-03T05:09:40.716Z,93.85
2022-12-03T05:12:10.087Z,94.18
2022-12-03T05:14:38.190Z,93.76
2022-12-03T05:17:06.466Z,93.04
2022-12-03T05:19:51.714Z,92.70
2022-12-03T05:22:19.746Z,93.41
2022-12-03T05:24:47.750Z,93.22
2022-12-03T05:27:23.172Z,93.00
2022-12-03T05:29:52.190Z,93.31
2022-12-03T05:32:20.379Z,93.30
2022-12-03T05:34:48.371Z,93.59
2022-12-03T05:37:16.537Z,93.75
2022-12-03T05:39:44.753Z,93.66
2022-12-03T05:42:30.200Z,93.60
2022-12-03T05:45:00.005Z,93.90
2022-12-03T05:47:27.886Z,93.32
2022-12-03T05:49:55.943Z,94.17
2022-12-03T05:52:24.105Z,94.06
2022-12-03T05:54:52.427Z,93.93
2022-12-03T05:57:20.940Z,93.66
2022-12-03T05:59:49.018Z,94.04
2022-12-03T06:02:18.575Z,93.79
2022-12-03T06:04:46.678Z,93.69
2022-12-03T06:07:14.877Z,94.22
2022-12-03T06:09:43.183Z,94.15
2022-12-03T06:12:11.197Z,93.89
2022-12-03T06:14:39.388Z,94.32
2022-12-03T06:17:07.289Z,94.26
2022-12-03T06:19:36.833Z,94.25
2022-12-03T06:22:04.972Z,94.20
2022-12-03T06:24:32.903Z,94.61
2022-12-03T06:27:01.029Z,94.49
2022-12-03T06:29:28.979Z,94.47
2022-12-03T06:31:57.062Z,94.70
2022-12-03T06:34:24.972Z,94.92
2022-12-03T06:36:54.277Z,94.90
2022-12-03T06:39:22.666Z,95.08
2022-12-03T06:41:50.853Z,95.08
2022-12-03T06:44:18.738Z,95.07
2022-12-03T06:46:46.964Z,95.03
2022-12-03T06:49:15.232Z,94.87
2022-12-03T06:51:43.098Z,94.85
2022-12-03T06:54:12.333Z,94.05
2022-12-03T06:56:45.155Z,94.52
2022-12-03T06:59:13.941Z,94.42
2022-12-03T07:01:41.931Z,94.36
2022-12-03T07:04:10.236Z,93.91
2022-12-03T07:06:38.149Z,93.69
2022-12-03T07:09:06.262Z,93.63
2022-12-03T07:11:40.463Z,93.57
2022-12-03T07:14:11.354Z,93.48
2022-12-03T07:16:43.482Z,93.54
2022-12-03T07:19:12.314Z,93.89
2022-12-03T07:21:40.527Z,93.85
2022-12-03T07:24:08.976Z,93.28
2022-12-03T07:26:38.781Z,93.40
2022-12-03T07:29:06.930Z,93.46
2022-12-03T07:31:35.107Z,93.85
2022-12-03T07:34:03.596Z,93.61
2022-12-03T07:36:31.740Z,93.67
2022-12-03T07:39:00.442Z,93.31
2022-12-03T07:41:28.616Z,93.59
2022-12-03T07:43:58.692Z,93.58
2022-12-03T07:46:27.161Z,93.52
2022-12-03T07:48:55.743Z,93.59
2022-12-03T07:51:27.491Z,93.15
2022-12-03T07:54:00.012Z,93.16
2022-12-03T07:56:28.046Z,93.21
2022-12-03T07:58:57.801Z,93.46
2022-12-03T08:01:26.282Z,93.40
2022-12-03T08:03:54.627Z,92.87
2022-12-03T08:06:23.104Z,91.48
2022-12-03T08:08:55.850Z,91.85
2022-12-03T08:11:27.403Z,91.36
2022-12-03T08:14:02.855Z,90.54
2022-12-03T08:16:34.015Z,91.26
2022-12-03T08:19:10.744Z,91.85
2022-12-03T08:21:41.964Z,91.22
2022-12-03T08:24:19.412Z,91.24
2022-12-03T08:26:55.089Z,91.60
2022-12-03T08:29:29.519Z,91.86
2022-12-03T08:32:01.655Z,90.19
2022-12-03T08:34:34.811Z,89.79
2022-12-03T08:37:13.788Z,89.16
2022-12-03T08:39:49.179Z,89.15
2022-12-03T08:42:40.914Z,89.34
2022-12-03T08:45:42.793Z,88.96
2022-12-03T08:48:33.623Z,88.96
2022-12-03T08:51:05.356Z,89.65
2022-12-03T08:53:37.233Z,88.76
2022-12-03T08:56:14.392Z,88.46
2022-12-03T08:58:45.189Z,88.10
2022-12-03T09:01:33.880Z,88.48
2022-12-03T09:04:25.127Z,88.80
2022-12-03T09:06:54.116Z,88.81
2022-12-03T09:09:23.320Z,88.40
2022-12-03T09:11:51.928Z,88.38
2022-12-03T09:14:22.842Z,88.02
2022-12-03T09:16:55.922Z,87.58
2022-12-03T09:19:25.165Z,88.38
2022-12-03T09:21:53.443Z,88.05
2022-12-03T09:24:21.412Z,86.77
2022-12-03T09:26:49.615Z,88.45
2022-12-03T09:29:17.635Z,88.31
2022-12-03T09:31:45.673Z,89.05
2022-12-03T09:34:15.695Z,89.22
2022-12-03T09:36:44.035Z,85.28
2022-12-03T09:39:12.360Z,86.40
2022-12-03T09:41:40.723Z,86.74
2022-12-03T09:44:13.938Z,86.34
2022-12-03T09:46:47.000Z,87.49
2022-12-03T09:49:19.839Z,87.47
2022-12-03T09:51:48.436Z,86.67
2022-12-03T09:54:23.280Z,87.11
2022-12-03T09:56:51.873Z,87.36
2022-12-03T09:59:19.949Z,87.49
2022-12-03T10:01:48.080Z,86.23
2022-12-03T10:04:17.772Z,86.87
2022-12-03T10:06:46.402Z,86.63
2022-12-03T10:09:18.147Z,86.66
2022-12-03T10:11:46.545Z,85.65
2022-12-03T10:14:16.072Z,86.38
2022-12-03T10:16:44.878Z,86.88
2022-12-03T10:19:20.705Z,86.29
2022-12-03T10:21:48.877Z,86.48
2022-12-03T10:24:26.945Z,86.16
2022-12-03T10:26:57.411Z,86.61
2022-12-03T10:29:33.334Z,86.22
2022-12-03T10:32:04.313Z,87.05
2022-12-03T10:34:36.278Z,85.84
2022-12-03T10:37:14.285Z,86.17
2022-12-03T10:39:58.250Z,85.36
2022-12-03T10:42:26.958Z,85.63
2022-12-03T10:45:20.221Z,84.57
2022-12-03T10:48:06.052Z,85.51
2022-12-03T10:50:36.698Z,85.61
2022-12-03T10:53:05.349Z,86.07
2022-12-03T10:55:40.111Z,86.70
2022-12-03T10:58:17.404Z,86.40
2022-12-03T11:00:45.390Z,86.07
2022-12-03T11:03:19.639Z,87.37
2022-12-03T11:05:52.808Z,86.24
2022-12-03T11:08:22.869Z,87.01
2022-12-03T11:10:59.467Z,86.88
2022-12-03T11:13:52.670Z,87.62
2022-12-03T11:17:09.287Z,86.60
2022-12-03T11:19:52.200Z,87.84
2022-12-03T11:22:47.019Z,87.15
2022-12-03T11:25:50.363Z,88.03
2022-12-03T11:28:39.538Z,85.46
2022-12-03T11:31:15.210Z,85.64
2022-12-03T11:33:44.705Z,85.66
2022-12-03T11:36:36.466Z,85.84
2022-12-03T11:39:10.676Z,85.80
2022-12-03T11:41:38.832Z,86.28
2022-12-03T11:44:38.294Z,86.75
2022-12-03T11:47:16.210Z,86.33
2022-12-03T11:49:49.040Z,87.38
2022-12-03T11:52:26.562Z,87.45
2022-12-03T11:55:01.397Z,86.73
2022-12-03T11:57:36.762Z,87.43
2022-12-03T12:00:19.994Z,85.97
2022-12-03T12:02:49.389Z,86.60
2022-12-03T12:05:20.928Z,86.14
2022-12-03T12:07:50.500Z,86.26
2022-12-03T12:10:52.837Z,87.07
2022-12-03T12:13:50.622Z,85.62
2022-12-03T12:16:37.443Z,84.94
2022-12-03T12:19:36.911Z,86.35
2022-12-03T12:22:30.463Z,86.40
2022-12-03T12:24:59.674Z,86.47
2022-12-03T12:27:37.531Z,86.27
2022-12-03T12:30:07.812Z,86.57
2022-12-03T12:32:43.314Z,87.26
2022-12-03T12:35:18.550Z,85.36
2022-12-03T12:37:56.845Z,86.17
2022-12-03T12:40:29.749Z,86.51
2022-12-03T12:43:05.410Z,86.40
2022-12-03T12:45:41.212Z,86.46
2022-12-03T12:48:17.927Z,86.83
2022-12-03T12:50:47.601Z,87.24
2022-12-03T12:53:23.545Z,87.28
2022-12-03T12:55:57.768Z,86.45
2022-12-03T12:58:29.979Z,87.11
2022-12-03T13:01:00.434Z,87.38
2022-12-03T13:03:33.931Z,87.28
2022-12-03T13:06:03.906Z,87.17
2022-12-03T13:08:34.138Z,87.12
2022-12-03T13:11:03.773Z,85.69
2022-12-03T13:13:43.746Z,85.84
2022-12-03T13:16:18.345Z,85.09
2022-12-03T13:18:49.038Z,85.47
2022-12-03T13:21:24.631Z,86.40
2022-12-03T13:23:54.474Z,86.74
2022-12-03T13:26:38.655Z,85.90
2022-12-03T13:29:15.451Z,86.49
2022-12-03T13:31:50.383Z,86.71
2022-12-03T13:34:22.628Z,86.11
2022-12-03T13:36:57.683Z,86.53
2022-12-03T13:39:30.949Z,86.96
2022-12-03T13:42:30.996Z,87.21
2022-12-03T13:45:03.206Z,86.93
2022-12-03T13:47:31.475Z,87.27
2022-12-03T13:50:04.717Z,87.86
2022-12-03T13:52:36.343Z,87.75
2022-12-03T13:55:06.799Z,87.27
2022-12-03T13:57:35.043Z,87.48
2022-12-03T14:00:06.062Z,87.64
2022-12-03T14:02:34.335Z,87.70
2022-12-03T14:05:03.296Z,87.98
2022-12-03T14:07:31.304Z,88.76
2022-12-03T14:09:59.583Z,88.37
2022-12-03T14:12:27.494Z,88.45
2022-12-03T14:14:55.780Z,88.75
2022-12-03T14:17:25.172Z,88.34
2022-12-03T14:19:53.269Z,88.29
2022-12-03T14:22:23.592Z,88.32
2022-12-03T14:24:51.896Z,88.41
2022-12-03T14:27:20.436Z,87.93
2022-12-03T14:29:49.300Z,86.86
2022-12-03T14:32:17.471Z,87.24
2022-12-03T14:34:47.057Z,87.27
2022-12-03T14:37:15.852Z,88.20
2022-12-03T14:39:43.884Z,86.96
2022-12-03T14:42:14.708Z,86.94
2022-12-03T14:44:43.814Z,87.55
2022-12-03T14:47:12.358Z,87.52
2022-12-03T14:49:40.730Z,87.30
2022-12-03T14:52:12.539Z,87.96
2022-12-03T14:54:42.671Z,87.51
2022-12-03T14:57:12.877Z,87.59
2022-12-03T14:59:42.118Z,87.45
2022-12-03T15:02:11.473Z,88.04
2022-12-03T15:04:40.495Z,87.59
2022-12-03T15:07:13.037Z,87.59
2022-12-03T15:09:41.060Z,88.16
2022-12-03T15:12:09.617Z,87.81
2022-12-03T15:14:37.685Z,86.99
2022-12-03T15:17:05.838Z,87.26
2022-12-03T15:19:34.120Z,87.79
2022-12-03T15:22:02.295Z,87.03
2022-12-03T15:24:31.927Z,87.61
2022-12-03T15:27:00.112Z,86.47
2022-12-03T15:29:28.118Z,86.31
2022-12-03T15:31:56.267Z,86.50
2022-12-03T15:34:24.232Z,87.04
2022-12-03T15:36:53.261Z,87.53
2022-12-03T15:39:22.625Z,86.07
2022-12-03T15:41:51.906Z,86.66
2022-12-03T15:44:19.727Z,87.34
2022-12-03T15:46:47.652Z,87.08
2022-12-03T15:49:15.819Z,86.96
2022-12-03T15:51:45.668Z,86.99
2022-12-03T15:54:13.522Z,87.51
2022-12-03T15:56:41.649Z,87.63
2022-12-03T15:59:10.826Z,87.36
2022-12-03T16:01:39.115Z,88.03
2022-12-03T16:04:07.266Z,88.01
2022-12-03T16:06:35.138Z,87.48
2022-12-03T16:09:03.049Z,86.60
2022-12-03T16:11:30.993Z,86.68
2022-12-03T16:13:59.199Z,87.53
2022-12-03T16:16:28.590Z,86.98
2022-12-03T16:18:56.546Z,86.46
2022-12-03T16:21:27.040Z,86.74
2022-12-03T16:23:56.077Z,87.63
2022-12-03T16:26:26.735Z,87.88
2022-12-03T16:28:54.858Z,88.61
2022-12-03T16:31:22.877Z,88.36
2022-12-03T16:33:52.319Z,88.58
2022-12-03T16:36:20.260Z,88.33
2022-12-03T16:38:48.306Z,88.31
2022-12-03T16:41:16.301Z,88.65
2022-12-03T16:43:47.426Z,89.24
2022-12-03T16:46:25.804Z,88.94
2022-12-03T16:48:57.927Z,88.78
2022-12-03T16:51:27.294Z,88.15
2022-12-03T16:53:55.804Z,88.47
2022-12-03T16:56:24.080Z,87.63
2022-12-03T16:58:51.955Z,88.14
2022-12-03T17:01:20.208Z,87.90
2022-12-03T17:03:48.295Z,87.62
2022-12-03T17:06:17.643Z,88.35
2022-12-03T17:08:49.376Z,88.86
2022-12-03T17:11:18.861Z,88.38
2022-12-03T17:13:47.095Z,87.91
2022-12-03T17:16:15.440Z,87.41
2022-12-03T17:18:43.778Z,87.55
2022-12-03T17:21:11.884Z,87.74
2022-12-03T17:23:41.217Z,88.51
2022-12-03T17:26:09.169Z,88.70
2022-12-03T17:28:37.116Z,88.18
2022-12-03T17:31:07.855Z,88.68
2022-12-03T17:33:35.906Z,89.15
2022-12-03T17:36:04.408Z,89.13
2022-12-03T17:38:39.418Z,88.61
2022-12-03T17:41:11.344Z,88.46
2022-12-03T17:43:39.585Z,89.30
2022-12-03T17:46:07.869Z,88.17
2022-12-03T17:48:36.476Z,88.81
2022-12-03T17:51:04.535Z,87.97
2022-12-03T17:53:32.552Z,88.70
2022-12-03T17:56:00.447Z,88.80
2022-12-03T17:58:29.923Z,88.80
2022-12-03T18:01:02.455Z,87.79
2022-12-03T18:03:31.258Z,89.27
2022-12-03T18:05:59.566Z,89.20
2022-12-03T18:08:27.748Z,90.04
2022-12-03T18:10:55.823Z,89.26
2022-12-03T18:13:23.872Z,89.45
2022-12-03T18:15:54.488Z,90.17
2022-12-03T18:18:22.599Z,89.98
2022-12-03T18:21:05.850Z,89.84
2022-12-03T18:23:36.847Z,90.12
2022-12-03T18:26:05.198Z,89.67
2022-12-03T18:28:33.303Z,89.75
2022-12-03T18:31:02.741Z,89.45
2022-12-03T18:33:30.716Z,88.50
2022-12-03T18:35:59.404Z,87.95
2022-12-03T18:38:34.317Z,87.67
2022-12-03T18:41:02.162Z,88.16
2022-12-03T18:43:36.112Z,87.91
2022-12-03T18:46:15.949Z,87.76
2022-12-03T18:48:53.316Z,88.01
2022-12-03T18:51:24.035Z,88.45
2022-12-03T18:53:52.971Z,89.19
2022-12-03T18:56:20.823Z,88.97
2022-12-03T18:58:48.734Z,88.07
2022-12-03T19:01:20.463Z,88.01
2022-12-03T19:03:48.833Z,88.89
2022-12-03T19:06:19.164Z,88.02
2022-12-03T19:08:48.326Z,88.25
2022-12-03T19:11:16.503Z,88.29
2022-12-03T19:13:44.451Z,87.58
2022-12-03T19:16:13.406Z,88.31
2022-12-03T19:18:42.686Z,89.09
2022-12-03T19:21:12.707Z,88.42
2022-12-03T19:23:41.386Z,89.31
2022-12-03T19:26:13.121Z,88.78
2022-12-03T19:28:42.517Z,89.59
2022-12-03T19:31:13.227Z,90.07
2022-12-03T19:33:43.050Z,89.84
2022-12-03T19:36:21.251Z,90.23
2022-12-03T19:38:55.185Z,89.83
2022-12-03T19:41:26.722Z,89.84
2022-12-03T19:43:56.649Z,90.10
2022-12-03T19:46:25.818Z,88.70
2022-12-03T19:48:56.093Z,89.32
2022-12-03T19:51:34.620Z,90.17
2022-12-03T19:54:03.466Z,90.63
2022-12-03T19:56:31.622Z,89.58
2022-12-03T19:59:00.139Z,89.57
2022-12-03T20:01:30.000Z,88.71
2022-12-03T20:04:01.334Z,89.66
2022-12-03T20:06:31.038Z,89.77
2022-12-03T20:09:00.663Z,89.88
2022-12-03T20:11:30.566Z,89.18
2022-12-03T20:14:00.088Z,90.19
2022-12-03T20:16:31.495Z,90.07
2022-12-03T20:19:02.397Z,89.56
2022-12-03T20:21:32.408Z,89.71
2022-12-03T20:24:00.761Z,90.80
2022-12-03T20:26:29.697Z,89.69
2022-12-03T20:28:58.353Z,89.26
2022-12-03T20:31:28.551Z,89.98
2022-12-03T20:33:58.755Z,89.44
2022-12-03T20:36:30.248Z,89.73
2022-12-03T20:39:00.005Z,88.58
2022-12-03T20:41:28.762Z,89.07
2022-12-03T20:43:57.146Z,89.45
2022-12-03T20:46:27.271Z,89.15
2022-12-03T20:48:56.250Z,89.70
2022-12-03T20:51:25.591Z,89.56
2022-12-03T20:53:55.528Z,90.11
2022-12-03T20:56:26.100Z,89.30
2022-12-03T20:58:54.547Z,89.92
2022-12-03T21:01:25.041Z,89.74
2022-12-03T21:03:54.187Z,90.04
2022-12-03T21:06:23.469Z,89.27
2022-12-03T21:08:53.169Z,89.61
2022-12-03T21:11:25.761Z,89.03
2022-12-03T21:13:55.068Z,88.96
2022-12-03T21:16:52.069Z,89.10
2022-12-03T21:19:13.648Z,89.39
2022-12-03T21:21:41.768Z,89.11
2022-12-03T21:24:09.648Z,88.79
2022-12-03T21:26:39.148Z,89.20
2022-12-03T21:29:07.381Z,90.17
2022-12-03T21:31:37.350Z,90.26
2022-12-03T21:34:05.599Z,90.20
2022-12-03T21:36:33.598Z,89.51
2022-12-03T21:39:01.658Z,89.80
2022-12-03T21:41:29.599Z,90.33
2022-12-03T21:43:58.934Z,90.17
2022-12-03T21:47:12.137Z,90.02
2022-12-03T21:49:15.073Z,89.01
2022-12-03T21:51:42.942Z,88.48
2022-12-03T21:54:10.781Z,89.36
2022-12-03T21:56:38.873Z,90.03
2022-12-03T21:59:08.110Z,88.46
2022-12-03T22:01:35.976Z,88.42
2022-12-03T22:04:03.890Z,87.57
2022-12-03T22:06:31.800Z,87.83
2022-12-03T22:08:59.687Z,88.69
2022-12-03T22:11:27.580Z,88.05
2022-12-03T22:13:57.169Z,89.03
2022-12-03T22:16:26.432Z,89.32
2022-12-03T22:18:55.502Z,88.64
2022-12-03T22:21:24.602Z,89.46
2022-12-03T22:23:52.894Z,88.89
2022-12-03T22:26:20.779Z,89.33
2022-12-03T22:28:50.172Z,89.06
2022-12-03T22:31:18.914Z,88.80
2022-12-03T22:33:48.620Z,89.05
2022-12-03T22:36:21.352Z,88.13
2022-12-03T22:38:52.757Z,88.91
2022-12-03T22:41:21.242Z,88.90
2022-12-03T22:43:49.891Z,88.68
2022-12-03T22:46:18.477Z,88.30
2022-12-03T22:48:49.199Z,88.75
2022-12-03T22:51:20.161Z,88.93
2022-12-03T22:53:48.584Z,89.58
2022-12-03T22:56:17.364Z,88.18
2022-12-03T22:58:45.748Z,89.39
2022-12-03T23:01:22.385Z,88.65
2022-12-03T23:03:51.955Z,88.69
2022-12-03T23:06:21.203Z,89.03
2022-12-03T23:08:49.802Z,88.67
2022-12-03T23:11:20.736Z,88.15
2022-12-03T23:13:48.942Z,89.11
2022-12-03T23:16:19.401Z,88.87
2022-12-03T23:18:47.547Z,89.15
2022-12-03T23:21:20.728Z,89.53
2022-12-03T23:23:52.126Z,89.88
2022-12-03T23:26:19.982Z,89.36
2022-12-03T23:28:48.722Z,89.33
2022-12-03T23:31:20.086Z,89.44
2022-12-03T23:33:48.796Z,89.58
2022-12-03T23:36:18.660Z,89.15
2022-12-03T23:38:46.951Z,89.54
2022-12-03T23:41:16.710Z,89.91
2022-12-03T23:43:44.957Z,89.46
2022-12-03T23:46:15.190Z,89.21
2022-12-03T23:48:43.538Z,89.98
2022-12-03T23:51:13.523Z,89.68
2022-12-03T23:53:43.340Z,89.20
2022-12-03T23:56:13.671Z,90.01
2022-12-03T23:58:41.838Z,90.01
